Time;durP1;ratioP1;P1;durP2;ratioP2;P2;SDS_P1;SDS_P2;PMS_P1;PMS_P2;Temp;Humidity;BMP_temperature;BMP_pressure;BME280_temperature;BME280_humidity;BME280_pressure;Samples;Min_cycle;Max_cycle;Signal;HPM_P1;HPM_P2
2023/09/28 00:00:58;;;;;;;38.70;34.70;;;19.80;99.90;;;;;;5050920;28;20029;-71
2023/09/28 00:03:25;;;;;;;41.53;37.30;;;19.80;99.90;;;;;;5050802;28;20040;-71
2023/09/28 00:05:51;;;;;;;55.55;50.85;;;19.80;99.90;;;;;;5051455;28;20029;-71
2023/09/28 00:08:17;;;;;;;60.63;55.83;;;19.80;99.90;;;;;;5052268;28;20047;-72
2023/09/28 00:10:43;;;;;;;58.45;53.47;;;19.80;99.90;;;;;;5050941;28;20041;-71
2023/09/28 00:13:09;;;;;;;60.08;55.03;;;19.90;99.90;;;;;;5052149;28;20040;-71
2023/09/28 00:15:37;;;;;;;64.35;59.60;;;19.90;99.90;;;;;;5054795;28;20048;-72
2023/09/28 00:18:03;;;;;;;64.88;59.97;;;19.90;99.90;;;;;;5055616;28;20045;-72
2023/09/28 00:20:30;;;;;;;61.53;56.50;;;19.90;99.90;;;;;;5055523;28;20033;-71
2023/09/28 00:22:56;;;;;;;68.68;63.00;;;19.90;99.90;;;;;;5056206;28;20041;-71
2023/09/28 00:25:23;;;;;;;64.95;59.40;;;19.90;99.90;;;;;;5055061;28;20032;-71
2023/09/28 00:27:50;;;;;;;70.10;64.93;;;19.90;99.90;;;;;;5055675;28;20148;-71
2023/09/28 00:30:19;;;;;;;64.57;59.85;;;19.90;99.90;;;;;;5053769;28;20033;-71
2023/09/28 00:32:49;;;;;;;62.42;57.22;;;19.90;99.90;;;;;;5055657;28;20021;-71
2023/09/28 00:35:16;;;;;;;51.72;47.28;;;19.90;99.90;;;;;;5055375;28;20092;-71
2023/09/28 00:37:42;;;;;;;54.58;49.90;;;19.90;99.90;;;;;;5055171;28;20047;-71
2023/09/28 00:40:19;;;;;;;66.88;60.63;;;19.90;99.90;;;;;;5055170;28;20037;-71
2023/09/28 00:42:46;;;;;;;54.85;50.05;;;19.80;99.90;;;;;;5054639;28;20483;-71
2023/09/28 00:45:13;;;;;;;66.22;61.15;;;19.80;99.90;;;;;;5054254;28;20044;-72
2023/09/28 00:47:39;;;;;;;88.43;82.10;;;19.70;99.90;;;;;;5054239;28;20060;-71
2023/09/28 00:50:15;;;;;;;88.13;82.20;;;19.60;99.90;;;;;;5055065;28;20040;-72
2023/09/28 00:52:48;;;;;;;85.53;79.32;;;19.50;99.90;;;;;;5054320;28;20037;-72
2023/09/28 00:55:15;;;;;;;106.50;99.38;;;19.40;99.90;;;;;;5053786;28;20048;-71
2023/09/28 00:57:42;;;;;;;117.82;110.28;;;19.30;99.90;;;;;;5053595;28;20395;-71
2023/09/28 01:02:55;;;;;;;93.47;86.93;;;19.20;99.90;;;;;;5041133;28;20391;-72
2023/09/28 01:05:38;;;;;;;88.30;82.15;;;19.10;99.90;;;;;;5035898;28;20033;-72
2023/09/28 01:08:14;;;;;;;91.63;85.25;;;19.10;99.90;;;;;;5054358;28;20037;-71
2023/09/28 01:10:41;;;;;;;88.70;82.22;;;19.10;99.90;;;;;;5054451;28;20041;-71
2023/09/28 01:13:20;;;;;;;103.60;96.22;;;19.10;99.90;;;;;;5054443;28;20037;-71
2023/09/28 01:15:47;;;;;;;92.35;85.97;;;19.00;99.90;;;;;;5054065;28;20041;-70
2023/09/28 01:18:17;;;;;;;106.85;99.93;;;19.00;99.90;;;;;;5054436;28;20056;-72
2023/09/28 01:20:44;;;;;;;104.25;97.40;;;19.00;99.90;;;;;;5054338;28;20025;-72
2023/09/28 01:23:10;;;;;;;90.65;83.90;;;18.90;99.90;;;;;;5054410;28;20032;-71
2023/09/28 01:25:37;;;;;;;72.85;66.85;;;18.90;99.90;;;;;;5053997;28;20049;-72
2023/09/28 01:28:05;;;;;;;101.20;94.28;;;18.90;99.90;;;;;;5052959;28;20045;-72
2023/09/28 01:30:31;;;;;;;70.00;65.05;;;18.80;99.90;;;;;;5053422;28;20042;-71
2023/09/28 01:32:57;;;;;;;96.03;89.45;;;18.80;99.90;;;;;;5054432;28;20025;-72
2023/09/28 01:35:24;;;;;;;108.30;101.22;;;18.80;99.90;;;;;;5053802;28;20032;-71
2023/09/28 01:38:13;;;;;;;96.95;90.78;;;18.80;99.90;;;;;;5053573;28;20063;-71
2023/09/28 01:40:39;;;;;;;91.75;84.72;;;18.80;99.90;;;;;;5051488;28;20380;-72
2023/09/28 01:43:05;;;;;;;98.70;92.18;;;18.80;99.90;;;;;;5054550;28;20456;-72
2023/09/28 01:45:31;;;;;;;90.50;84.18;;;18.70;99.90;;;;;;5053302;28;20033;-71
2023/09/28 01:47:57;;;;;;;89.20;82.95;;;18.70;99.90;;;;;;5054007;28;20040;-71
2023/09/28 01:50:23;;;;;;;73.30;68.43;;;18.70;99.90;;;;;;5053537;28;20036;-72
2023/09/28 01:52:50;;;;;;;98.05;90.90;;;18.70;99.90;;;;;;5054172;28;20210;-71
2023/09/28 01:55:16;;;;;;;78.03;72.65;;;18.70;99.90;;;;;;5052444;28;20037;-71
2023/09/28 01:57:42;;;;;;;66.65;61.35;;;18.70;99.90;;;;;;5053420;28;20045;-72
2023/09/28 02:00:16;;;;;;;69.20;64.38;;;18.70;99.90;;;;;;5053289;28;20037;-71
2023/09/28 02:02:42;;;;;;;70.82;65.50;;;18.70;99.90;;;;;;5032887;28;20049;-71
2023/09/28 02:05:08;;;;;;;85.00;79.60;;;18.70;99.90;;;;;;5046246;28;20025;-71
2023/09/28 02:07:36;;;;;;;87.10;81.45;;;18.60;99.90;;;;;;5053973;28;20032;-71
2023/09/28 02:10:04;;;;;;;73.43;68.35;;;18.50;99.90;;;;;;5052968;28;20486;-72
2023/09/28 02:12:31;;;;;;;86.35;80.78;;;18.50;99.90;;;;;;5052982;28;20052;-72
2023/09/28 02:14:59;;;;;;;84.57;78.50;;;18.40;99.90;;;;;;5053509;28;20364;-72
2023/09/28 02:17:28;;;;;;;86.45;80.78;;;18.40;99.90;;;;;;5052882;28;20048;-71
2023/09/28 02:19:54;;;;;;;73.47;68.13;;;18.40;99.90;;;;;;5053117;28;20048;-71
2023/09/28 02:22:20;;;;;;;75.28;69.93;;;18.40;99.90;;;;;;5053291;28;20033;-71
2023/09/28 02:24:46;;;;;;;75.88;70.45;;;18.30;99.90;;;;;;5053458;28;20025;-71
2023/09/28 02:27:13;;;;;;;78.05;72.78;;;18.40;99.90;;;;;;5046107;28;20045;-71
2023/09/28 02:29:39;;;;;;;72.10;66.88;;;18.40;99.90;;;;;;5049744;28;20038;-71
2023/09/28 02:32:05;;;;;;;83.13;77.40;;;18.30;99.90;;;;;;5052483;28;20029;-71
2023/09/28 02:34:34;;;;;;;61.78;57.00;;;18.30;99.90;;;;;;5052826;28;20033;-71
2023/09/28 02:37:01;;;;;;;64.25;59.80;;;18.30;99.90;;;;;;5051930;28;20048;-71
2023/09/28 02:39:28;;;;;;;70.88;65.85;;;18.20;99.90;;;;;;5052208;28;20061;-71
2023/09/28 02:41:55;;;;;;;78.03;72.40;;;18.20;99.90;;;;;;5051669;28;20514;-71
2023/09/28 02:44:22;;;;;;;79.95;74.90;;;18.20;99.90;;;;;;5052907;28;20041;-71
2023/09/28 02:46:48;;;;;;;63.97;59.55;;;18.20;99.90;;;;;;5051992;28;20407;-71
2023/09/28 02:49:14;;;;;;;80.95;75.63;;;18.20;99.90;;;;;;5052471;28;20029;-71
2023/09/28 02:51:40;;;;;;;76.50;70.68;;;18.20;99.90;;;;;;5052332;28;20064;-71
2023/09/28 02:54:06;;;;;;;73.70;67.90;;;18.20;99.90;;;;;;5052921;28;20395;-71
2023/09/28 02:56:32;;;;;;;91.93;85.72;;;18.20;99.90;;;;;;5052619;28;20032;-71
2023/09/28 02:58:59;;;;;;;64.93;60.30;;;18.20;99.90;;;;;;5052456;28;20439;-71
2023/09/28 03:01:26;;;;;;;78.13;72.53;;;18.00;99.90;;;;;;5051352;28;20411;-71
2023/09/28 03:03:53;;;;;;;81.07;76.13;;;17.90;99.90;;;;;;5051988;28;20534;-71
2023/09/28 03:06:20;;;;;;;96.80;90.47;;;17.90;99.90;;;;;;5051728;28;20037;-71
2023/09/28 03:08:47;;;;;;;59.95;55.58;;;17.90;99.90;;;;;;5052123;28;20514;-71
2023/09/28 03:11:13;;;;;;;53.90;49.85;;;17.90;99.90;;;;;;5050866;28;20025;-71
2023/09/28 03:13:39;;;;;;;54.30;49.67;;;17.90;99.90;;;;;;5052256;28;20045;-71
2023/09/28 03:16:06;;;;;;;48.92;44.55;;;17.90;99.90;;;;;;5051588;28;20514;-71
2023/09/28 03:18:33;;;;;;;58.92;54.40;;;17.90;99.90;;;;;;5051737;28;20045;-71
2023/09/28 03:20:59;;;;;;;52.25;47.83;;;17.90;99.90;;;;;;5052363;28;20044;-71
2023/09/28 03:23:25;;;;;;;58.90;54.80;;;17.80;99.90;;;;;;5050557;28;20041;-71
2023/09/28 03:25:55;;;;;;;65.22;61.03;;;17.90;99.90;;;;;;5051696;28;20048;-71
2023/09/28 03:28:22;;;;;;;73.07;67.65;;;17.80;99.90;;;;;;5052390;28;20025;-71
2023/09/28 03:30:48;;;;;;;78.40;73.15;;;17.80;99.90;;;;;;5050893;28;20051;-71
2023/09/28 03:33:14;;;;;;;69.53;64.70;;;17.70;99.90;;;;;;5051671;28;20041;-71
2023/09/28 03:35:40;;;;;;;80.90;76.03;;;17.70;99.90;;;;;;5051020;28;20045;-71
2023/09/28 03:38:07;;;;;;;97.40;90.95;;;17.70;99.90;;;;;;5051786;28;20380;-71
2023/09/28 03:40:36;;;;;;;62.65;58.33;;;17.70;99.90;;;;;;5051193;28;20056;-71
2023/09/28 03:43:02;;;;;;;64.65;60.58;;;17.70;99.90;;;;;;5051546;28;20426;-71
2023/09/28 03:45:28;;;;;;;65.38;60.70;;;17.70;99.90;;;;;;5047994;28;20038;-71
2023/09/28 03:47:54;;;;;;;78.97;73.65;;;17.70;99.90;;;;;;5030660;28;20044;-71
2023/09/28 03:50:21;;;;;;;50.13;46.72;;;17.60;99.90;;;;;;5031141;28;20037;-71
2023/09/28 03:52:47;;;;;;;55.92;51.95;;;17.60;99.90;;;;;;5032059;28;20030;-72
2023/09/28 03:55:15;;;;;;;53.85;49.97;;;17.50;99.90;;;;;;5031913;28;20026;-71
2023/09/28 03:57:44;;;;;;;59.58;55.08;;;17.50;99.90;;;;;;5031581;28;20046;-71
2023/09/28 04:00:14;;;;;;;52.50;49.10;;;17.50;99.90;;;;;;5031190;28;20476;-72
2023/09/28 04:02:44;;;;;;;64.88;60.72;;;17.50;99.90;;;;;;5031286;28;20025;-71
2023/09/28 04:05:10;;;;;;;57.95;53.97;;;17.40;99.90;;;;;;5031419;28;20033;-71
2023/09/28 04:07:37;;;;;;;66.60;62.75;;;17.50;99.90;;;;;;5026353;28;20042;-71
2023/09/28 04:10:03;;;;;;;67.97;63.05;;;17.50;99.90;;;;;;5031117;28;20143;-71
2023/09/28 04:12:29;;;;;;;61.15;57.05;;;17.40;99.90;;;;;;5031191;28;20046;-71
2023/09/28 04:14:55;;;;;;;57.28;52.85;;;17.40;99.90;;;;;;5031864;28;20404;-71
2023/09/28 04:17:21;;;;;;;56.03;52.28;;;17.30;99.90;;;;;;5030491;28;20034;-71
2023/09/28 04:19:48;;;;;;;56.72;52.78;;;17.30;99.90;;;;;;5028943;28;20037;-71
2023/09/28 04:22:14;;;;;;;50.42;46.83;;;17.30;99.90;;;;;;5024907;28;20420;-71
2023/09/28 04:24:40;;;;;;;46.35;42.83;;;17.30;99.90;;;;;;5031280;28;20038;-72
2023/09/28 04:27:08;;;;;;;58.38;54.72;;;17.30;99.90;;;;;;5031046;28;20029;-72
2023/09/28 04:29:37;;;;;;;54.70;50.78;;;17.30;99.90;;;;;;5031516;28;20400;-72
2023/09/28 04:32:03;;;;;;;52.92;49.28;;;17.40;99.90;;;;;;5030437;28;20049;-71
2023/09/28 04:34:29;;;;;;;50.65;46.35;;;17.30;99.90;;;;;;5040931;28;20029;-71
2023/09/28 04:36:57;;;;;;;51.33;47.17;;;17.30;99.90;;;;;;5030616;28;20377;-71
2023/09/28 04:39:24;;;;;;;54.50;50.67;;;17.30;99.90;;;;;;5030770;28;20054;-71
2023/09/28 04:41:53;;;;;;;53.60;49.13;;;17.30;99.90;;;;;;5031103;28;20046;-71
2023/09/28 04:44:20;;;;;;;55.47;51.10;;;17.20;99.90;;;;;;5030976;28;20044;-71
2023/09/28 04:46:50;;;;;;;53.17;48.92;;;17.10;99.90;;;;;;5044844;28;20409;-71
2023/09/28 04:49:19;;;;;;;46.03;42.47;;;16.90;99.90;;;;;;5049916;28;20492;-72
2023/09/28 04:51:45;;;;;;;50.97;46.53;;;16.70;99.90;;;;;;5051293;28;20033;-71
2023/09/28 04:54:11;;;;;;;48.92;45.10;;;16.60;99.90;;;;;;5051234;28;20021;-71
2023/09/28 04:56:39;;;;;;;42.97;39.47;;;16.50;99.90;;;;;;5050990;28;20048;-71
2023/09/28 04:59:05;;;;;;;46.42;42.53;;;16.40;99.90;;;;;;5050815;28;20045;-71
2023/09/28 05:01:31;;;;;;;46.45;42.30;;;16.50;99.90;;;;;;5053701;28;20045;-72
2023/09/28 05:03:57;;;;;;;48.85;45.47;;;16.60;99.90;;;;;;5054923;28;20029;-72
2023/09/28 05:06:23;;;;;;;41.55;38.28;;;16.80;99.90;;;;;;5054197;28;20048;-72
2023/09/28 05:08:49;;;;;;;42.97;39.20;;;16.90;99.90;;;;;;5054931;28;20029;-72
2023/09/28 05:11:16;;;;;;;45.85;42.47;;;16.80;99.90;;;;;;5054417;28;20387;-71
2023/09/28 05:13:42;;;;;;;47.35;43.25;;;17.00;99.90;;;;;;5052218;28;20068;-71
2023/09/28 05:16:08;;;;;;;55.90;51.17;;;17.10;99.90;;;;;;5053222;28;20032;-71
2023/09/28 05:18:35;;;;;;;56.33;52.13;;;17.10;99.90;;;;;;5053833;28;20045;-71
2023/09/28 05:21:01;;;;;;;49.42;45.60;;;17.10;99.90;;;;;;5054161;28;20044;-71
2023/09/28 05:23:27;;;;;;;47.55;43.85;;;17.20;99.90;;;;;;5054059;28;20391;-71
2023/09/28 05:25:53;;;;;;;50.53;46.90;;;17.20;99.90;;;;;;5054477;28;20036;-71
2023/09/28 05:28:19;;;;;;;50.38;46.80;;;17.20;99.90;;;;;;5053882;28;20033;-71
2023/09/28 05:30:46;;;;;;;54.03;49.80;;;17.30;99.90;;;;;;5053622;28;20040;-71
2023/09/28 05:33:12;;;;;;;48.38;44.42;;;17.30;99.90;;;;;;5053780;28;20029;-71
2023/09/28 05:35:38;;;;;;;46.92;43.50;;;17.30;99.90;;;;;;5054598;28;20041;-71
2023/09/28 05:38:04;;;;;;;48.85;44.95;;;17.30;99.90;;;;;;5053602;28;20033;-71
2023/09/28 05:40:30;;;;;;;53.20;48.72;;;17.10;99.90;;;;;;5053162;28;20115;-72
2023/09/28 05:42:56;;;;;;;45.85;41.92;;;16.90;99.90;;;;;;5053291;28;20040;-71
2023/09/28 05:45:22;;;;;;;44.05;40.38;;;16.70;99.90;;;;;;5050532;28;20143;-71
2023/09/28 05:47:49;;;;;;;49.33;45.08;;;16.70;99.90;;;;;;5032802;28;20041;-71
2023/09/28 05:50:15;;;;;;;56.55;52.25;;;16.90;99.90;;;;;;5033149;28;20025;-71
2023/09/28 05:52:42;;;;;;;50.40;46.03;;;17.00;99.90;;;;;;5033741;28;20050;-71
2023/09/28 05:55:09;;;;;;;50.80;46.72;;;17.10;99.90;;;;;;5034523;28;20033;-70
2023/09/28 05:57:35;;;;;;;54.88;50.42;;;17.20;99.90;;;;;;5049320;28;20049;-71
2023/09/28 06:00:07;;;;;;;53.58;49.17;;;17.30;99.90;;;;;;5033861;28;20041;-71
2023/09/28 06:02:33;;;;;;;57.00;52.50;;;17.30;99.90;;;;;;5052877;28;20102;-71
2023/09/28 06:04:59;;;;;;;56.05;51.67;;;17.40;99.90;;;;;;5054498;28;20033;-71
2023/09/28 06:07:25;;;;;;;63.65;58.50;;;17.40;99.90;;;;;;5054659;28;20037;-71
2023/09/28 06:09:52;;;;;;;56.92;52.60;;;17.30;99.90;;;;;;5051482;28;20033;-71
2023/09/28 06:12:18;;;;;;;54.33;50.58;;;17.20;99.90;;;;;;5051737;28;20033;-71
2023/09/28 06:14:44;;;;;;;62.85;57.85;;;17.30;99.90;;;;;;5053483;28;20055;-71
2023/09/28 06:17:10;;;;;;;65.78;61.33;;;17.30;99.90;;;;;;5034465;28;20033;-70
2023/09/28 06:19:37;;;;;;;58.85;54.50;;;17.20;99.90;;;;;;5031127;28;20064;-71
2023/09/28 06:22:05;;;;;;;71.38;66.32;;;17.20;99.90;;;;;;5030814;28;20488;-70
2023/09/28 06:24:31;;;;;;;79.78;74.38;;;17.20;99.90;;;;;;5034068;28;20046;-70
2023/09/28 06:26:58;;;;;;;55.00;50.78;;;17.20;99.90;;;;;;5029453;28;20025;-71
2023/09/28 06:29:24;;;;;;;52.17;48.08;;;17.20;99.90;;;;;;5026497;28;20034;-70
2023/09/28 06:31:50;;;;;;;69.07;63.85;;;17.10;99.90;;;;;;5032584;28;20040;-70
2023/09/28 06:34:16;;;;;;;58.72;54.28;;;16.90;99.90;;;;;;5033446;28;20033;-70
2023/09/28 06:36:42;;;;;;;58.63;53.38;;;16.90;99.90;;;;;;5032914;28;20060;-70
2023/09/28 06:39:08;;;;;;;67.32;62.05;;;16.90;99.90;;;;;;5032916;28;20385;-70
2023/09/28 06:41:34;;;;;;;70.05;64.10;;;16.80;99.90;;;;;;5031431;28;20030;-71
2023/09/28 06:44:00;;;;;;;59.10;53.83;;;16.80;99.90;;;;;;5030644;28;20103;-71
2023/09/28 06:46:27;;;;;;;63.92;59.20;;;17.00;99.90;;;;;;5030772;28;20050;-70
2023/09/28 06:48:53;;;;;;;84.57;78.38;;;17.00;99.90;;;;;;5030611;28;20052;-70
2023/09/28 06:51:22;;;;;;;71.95;66.28;;;17.10;99.90;;;;;;5031799;28;20052;-70
2023/09/28 06:53:48;;;;;;;59.42;54.85;;;17.30;99.90;;;;;;5022237;28;20033;-70
2023/09/28 06:56:14;;;;;;;57.38;52.67;;;17.10;99.90;;;;;;5024751;28;20376;-70
2023/09/28 06:58:40;;;;;;;56.60;52.80;;;17.00;99.90;;;;;;5024981;28;20032;-70
2023/09/28 07:01:06;;;;;;;55.33;51.45;;;17.00;99.90;;;;;;5032525;28;20404;-71
2023/09/28 07:03:32;;;;;;;61.10;56.50;;;17.00;99.90;;;;;;5029567;28;20041;-70
2023/09/28 07:05:58;;;;;;;61.17;56.45;;;17.10;99.90;;;;;;5031512;28;20476;-70
2023/09/28 07:08:24;;;;;;;71.63;66.78;;;17.00;99.90;;;;;;5028956;28;20036;-71
2023/09/28 07:10:50;;;;;;;73.47;68.35;;;17.00;99.90;;;;;;5031650;28;20050;-70
2023/09/28 07:13:17;;;;;;;59.75;55.10;;;16.90;99.90;;;;;;5031648;28;20036;-70
2023/09/28 07:15:43;;;;;;;60.60;55.92;;;16.80;99.90;;;;;;5031735;28;20045;-70
2023/09/28 07:18:09;;;;;;;67.55;62.90;;;16.80;99.90;;;;;;5032801;28;20389;-71
2023/09/28 07:20:35;;;;;;;64.68;59.88;;;16.70;99.90;;;;;;5047401;28;20412;-70
2023/09/28 07:23:01;;;;;;;63.45;59.05;;;16.80;99.90;;;;;;5031676;28;20033;-71
2023/09/28 07:25:28;;;;;;;65.38;60.85;;;16.90;99.90;;;;;;5031714;28;20037;-71
2023/09/28 07:27:54;;;;;;;64.00;59.17;;;17.00;99.90;;;;;;5030767;28;20034;-70
2023/09/28 07:30:20;;;;;;;62.95;58.63;;;16.90;99.90;;;;;;5028764;28;20044;-71
2023/09/28 07:32:47;;;;;;;59.78;55.42;;;16.90;99.90;;;;;;5019062;28;20045;-70
2023/09/28 07:35:16;;;;;;;61.17;56.42;;;17.00;99.90;;;;;;5028809;28;20408;-71
2023/09/28 07:37:43;;;;;;;61.85;57.30;;;17.00;99.90;;;;;;5031617;28;20089;-70
2023/09/28 07:40:13;;;;;;;70.97;66.72;;;17.00;99.90;;;;;;5031299;28;20053;-70
2023/09/28 07:42:40;;;;;;;68.28;63.28;;;17.10;99.90;;;;;;5033931;28;20364;-70
2023/09/28 07:45:06;;;;;;;63.30;58.53;;;17.20;99.90;;;;;;5040706;28;20048;-70
2023/09/28 07:47:33;;;;;;;80.47;74.97;;;17.30;99.90;;;;;;5031903;28;20034;-71
2023/09/28 07:50:00;;;;;;;69.22;64.32;;;17.40;99.90;;;;;;5029375;28;20412;-71
2023/09/28 07:52:26;;;;;;;77.10;71.35;;;17.40;99.90;;;;;;5028401;28;20034;-71
2023/09/28 07:54:52;;;;;;;71.15;66.15;;;17.40;99.90;;;;;;5031051;28;20065;-70
2023/09/28 07:57:18;;;;;;;72.80;67.90;;;17.50;99.90;;;;;;5031729;28;20037;-70
2023/09/28 07:59:44;;;;;;;63.03;57.90;;;17.70;99.90;;;;;;5035559;28;20033;-70
2023/09/28 08:02:11;;;;;;;67.32;63.05;;;17.80;99.90;;;;;;5064200;28;20041;-73
2023/09/28 08:04:37;;;;;;;79.40;73.72;;;18.00;99.90;;;;;;5071841;28;20478;-77
2023/09/28 08:07:03;;;;;;;80.82;75.18;;;17.90;99.90;;;;;;5053138;28;20033;-73
2023/09/28 08:09:30;;;;;;;87.45;82.03;;;18.00;99.90;;;;;;5049151;28;20041;-73
2023/09/28 08:11:56;;;;;;;74.85;69.82;;;18.20;99.90;;;;;;5051509;28;20045;-74
2023/09/28 08:14:22;;;;;;;84.40;78.90;;;18.30;99.90;;;;;;5051254;28;20045;-71
2023/09/28 08:16:48;;;;;;;75.60;70.63;;;18.30;99.90;;;;;;5036539;28;20048;-71
2023/09/28 08:19:14;;;;;;;61.70;57.22;;;18.20;99.90;;;;;;5031925;28;20037;-70
2023/09/28 08:21:41;;;;;;;70.13;64.93;;;18.30;99.90;;;;;;5030047;28;20037;-71
2023/09/28 08:24:08;;;;;;;79.60;74.55;;;18.30;99.90;;;;;;5036524;28;20490;-71
2023/09/28 08:26:34;;;;;;;64.68;60.10;;;18.40;99.90;;;;;;5036248;28;20052;-71
2023/09/28 08:29:01;;;;;;;100.10;93.13;;;18.50;99.90;;;;;;5031616;28;20034;-71
2023/09/28 08:31:27;;;;;;;77.97;71.72;;;18.50;99.90;;;;;;5041037;28;20037;-71
2023/09/28 08:33:54;;;;;;;67.88;62.53;;;18.60;99.90;;;;;;5051535;28;20047;-71
2023/09/28 08:36:21;;;;;;;76.10;70.68;;;18.80;99.90;;;;;;5054225;28;20467;-71
2023/09/28 08:38:48;;;;;;;88.82;82.47;;;18.90;99.90;;;;;;5055434;28;20116;-71
2023/09/28 08:41:16;;;;;;;87.75;81.63;;;19.00;99.90;;;;;;5055195;28;20045;-71
2023/09/28 08:43:52;;;;;;;95.07;88.07;;;19.00;99.90;;;;;;5054713;28;20475;-71
2023/09/28 08:46:18;;;;;;;62.83;57.85;;;19.00;99.90;;;;;;5044439;28;20040;-71
2023/09/28 08:48:47;;;;;;;52.17;48.10;;;19.00;99.90;;;;;;5035505;28;20021;-71
2023/09/28 08:51:15;;;;;;;44.10;40.38;;;19.10;99.90;;;;;;5034541;28;20044;-71
2023/09/28 08:53:43;;;;;;;89.05;83.15;;;19.20;99.90;;;;;;5034725;28;20476;-71
2023/09/28 08:56:09;;;;;;;52.78;48.30;;;19.40;99.90;;;;;;5033401;28;20042;-67
2023/09/28 08:58:36;;;;;;;59.33;54.05;;;19.50;99.90;;;;;;5017949;28;20480;-72
2023/09/28 09:01:02;;;;;;;59.60;54.65;;;19.60;99.90;;;;;;5042226;28;20045;-71
2023/09/28 09:03:28;;;;;;;63.95;58.47;;;19.80;99.90;;;;;;5054926;28;20033;-71
2023/09/28 09:05:56;;;;;;;54.13;49.78;;;19.80;99.90;;;;;;5054137;28;20373;-71
2023/09/28 09:08:22;;;;;;;66.68;61.25;;;19.80;99.90;;;;;;5050178;28;20036;-71
2023/09/28 09:10:51;;;;;;;73.82;68.15;;;19.90;99.90;;;;;;5060317;28;20048;-71
2023/09/28 09:13:20;;;;;;;82.93;76.80;;;19.90;99.90;;;;;;5054657;28;20028;-71
2023/09/28 09:15:46;;;;;;;59.65;54.75;;;19.90;99.90;;;;;;5056484;28;20064;-71
2023/09/28 09:18:16;;;;;;;55.63;50.78;;;19.90;99.90;;;;;;5056516;28;20056;-71
2023/09/28 09:20:42;;;;;;;74.60;68.90;;;20.00;99.90;;;;;;5059954;28;20044;-71
2023/09/28 09:23:13;;;;;;;102.32;95.60;;;20.20;99.90;;;;;;5054777;28;20486;-70
2023/09/28 09:25:43;;;;;;;90.53;84.00;;;20.20;99.90;;;;;;5054242;28;20052;-71
2023/09/28 09:28:10;;;;;;;94.40;87.60;;;20.30;99.90;;;;;;5054622;28;20029;-71
2023/09/28 09:30:36;;;;;;;85.10;79.25;;;20.30;99.90;;;;;;5050545;28;20453;-70
2023/09/28 09:33:06;;;;;;;81.05;75.43;;;20.40;99.90;;;;;;5054489;28;20029;-70
2023/09/28 09:35:38;;;;;;;96.57;90.67;;;20.50;99.90;;;;;;5051291;28;20051;-71
2023/09/28 09:38:04;;;;;;;93.07;86.95;;;20.70;99.90;;;;;;5052368;28;20025;-70
2023/09/28 09:40:31;;;;;;;95.10;88.95;;;20.80;99.90;;;;;;5053767;28;20064;-71
2023/09/28 09:43:08;;;;;;;123.85;116.40;;;20.80;99.90;;;;;;5059060;28;20375;-71
2023/09/28 09:45:38;;;;;;;121.32;113.65;;;20.60;99.90;;;;;;5050164;28;20479;-71
2023/09/28 09:48:06;;;;;;;109.97;102.53;;;20.50;99.90;;;;;;5055464;28;20406;-71
2023/09/28 09:50:33;;;;;;;113.25;106.10;;;20.60;99.90;;;;;;5057715;28;20287;-71
2023/09/28 09:53:00;;;;;;;120.47;112.95;;;20.70;99.90;;;;;;5059296;28;20399;-71
2023/09/28 09:55:26;;;;;;;115.97;108.25;;;20.70;99.90;;;;;;5049330;28;20041;-71
2023/09/28 09:57:53;;;;;;;117.68;110.40;;;20.80;99.90;;;;;;5053590;28;20056;-71
2023/09/28 10:00:19;;;;;;;114.07;107.10;;;20.70;99.90;;;;;;5044990;28;20602;-71
2023/09/28 10:02:45;;;;;;;117.00;110.13;;;20.80;99.90;;;;;;5058736;28;20028;-71
2023/09/28 10:05:13;;;;;;;111.75;104.05;;;20.80;99.90;;;;;;5035386;28;20032;-71
2023/09/28 10:07:39;;;;;;;109.72;102.65;;;21.00;99.90;;;;;;5045390;28;20059;-71
2023/09/28 10:10:06;;;;;;;114.45;107.47;;;21.10;99.90;;;;;;5051671;28;20047;-71
2023/09/28 10:12:32;;;;;;;122.80;115.63;;;21.30;99.90;;;;;;5051432;28;20502;-71
2023/09/28 10:14:58;;;;;;;147.55;139.05;;;21.50;99.90;;;;;;5051726;28;20053;-71
2023/09/28 10:17:25;;;;;;;175.07;164.88;;;21.50;99.90;;;;;;5049619;28;20034;-71
2023/09/28 10:19:53;;;;;;;147.50;138.98;;;21.50;99.90;;;;;;5021016;28;20033;-71
2023/09/28 10:22:20;;;;;;;148.80;140.23;;;21.50;99.90;;;;;;5042178;28;20495;-71
2023/09/28 10:24:46;;;;;;;154.23;145.07;;;21.60;99.90;;;;;;5044955;28;20021;-71
2023/09/28 10:27:12;;;;;;;165.07;155.98;;;21.70;99.90;;;;;;5051618;28;20481;-71
2023/09/28 10:29:39;;;;;;;199.52;188.77;;;21.90;99.90;;;;;;5051660;28;20151;-71
2023/09/28 10:32:28;;;;;;;191.85;180.82;;;22.00;99.90;;;;;;5047555;28;20048;-71
2023/09/28 10:35:19;;;;;;;206.05;195.00;;;22.00;99.90;;;;;;5045170;28;20502;-71
2023/09/28 10:38:04;;;;;;;;;;;22.00;99.90;;;;;;5052536;28;20036;-71
2023/09/28 10:40:33;;;;;;;192.63;181.48;;;22.10;99.90;;;;;;5050959;28;19931;-70
2023/09/28 10:43:13;;;;;;;203.02;192.13;;;22.30;99.90;;;;;;5051842;28;20507;-70
2023/09/28 10:45:39;;;;;;;235.60;222.95;;;22.10;99.90;;;;;;5051460;28;20064;-71
2023/09/28 10:48:06;;;;;;;252.63;239.07;;;22.10;99.90;;;;;;5048631;28;20044;-71
2023/09/28 10:50:39;;;;;;;252.25;238.52;;;22.20;99.90;;;;;;5051676;28;20059;-71
2023/09/28 10:53:05;;;;;;;245.70;232.45;;;22.20;99.90;;;;;;5048070;28;20025;-70
2023/09/28 10:55:31;;;;;;;248.15;234.30;;;22.00;99.90;;;;;;5051244;28;20059;-71
2023/09/28 10:58:04;;;;;;;264.35;250.20;;;22.10;99.90;;;;;;5050659;28;20500;-71
2023/09/28 11:00:32;;;;;;;229.82;217.38;;;22.20;99.90;;;;;;5050676;28;20052;-70
2023/09/28 11:02:58;;;;;;;239.43;226.48;;;22.00;99.90;;;;;;5051821;28;20101;-71
2023/09/28 11:05:25;;;;;;;206.05;194.70;;;22.00;99.90;;;;;;5049900;28;20033;-71
2023/09/28 11:07:51;;;;;;;193.90;183.38;;;21.90;99.90;;;;;;5045619;28;20029;-70
2023/09/28 11:10:17;;;;;;;221.18;209.10;;;22.00;99.90;;;;;;5049504;28;20032;-71
2023/09/28 11:12:44;;;;;;;235.13;222.25;;;22.20;99.90;;;;;;5051675;28;20048;-70
2023/09/28 11:15:14;;;;;;;274.13;259.35;;;22.30;99.90;;;;;;5049668;28;20056;-71
2023/09/28 11:17:41;;;;;;;285.55;270.13;;;22.40;99.90;;;;;;5030570;28;20045;-70
2023/09/28 11:20:11;;;;;;;288.15;272.50;;;22.40;99.90;;;;;;5050774;28;20029;-70
2023/09/28 11:22:37;;;;;;;313.00;296.40;;;22.50;99.90;;;;;;5043716;28;20045;-70
2023/09/28 11:25:03;;;;;;;321.67;304.58;;;22.50;99.90;;;;;;5051822;28;20029;-70
2023/09/28 11:27:29;;;;;;;317.02;300.33;;;22.50;99.90;;;;;;5051313;28;20044;-70
2023/09/28 11:29:56;;;;;;;318.45;301.50;;;22.60;99.90;;;;;;5050560;28;20024;-71
2023/09/28 11:32:22;;;;;;;347.10;328.23;;;22.70;99.90;;;;;;5050137;28;20045;-70
2023/09/28 11:34:48;;;;;;;330.55;312.73;;;22.70;99.90;;;;;;5051954;28;20033;-71
2023/09/28 11:37:16;;;;;;;320.70;303.77;;;22.80;99.90;;;;;;5050817;28;20399;-70
2023/09/28 11:39:42;;;;;;;324.17;306.80;;;22.90;99.90;;;;;;5051399;28;20044;-71
2023/09/28 11:42:09;;;;;;;345.38;327.20;;;23.10;99.90;;;;;;5049583;28;20048;-70
2023/09/28 11:44:36;;;;;;;345.75;327.27;;;23.10;99.90;;;;;;5051602;28;20483;-70
2023/09/28 11:47:05;;;;;;;352.65;333.60;;;22.90;99.90;;;;;;5034268;28;20044;-70
2023/09/28 11:49:34;;;;;;;343.50;325.33;;;23.00;99.90;;;;;;5031202;28;20447;-70
2023/09/28 11:52:02;;;;;;;352.17;333.50;;;23.10;99.90;;;;;;5030539;28;20048;-70
2023/09/28 11:54:28;;;;;;;317.67;301.15;;;23.00;99.90;;;;;;5014018;28;20041;-70
2023/09/28 11:56:54;;;;;;;308.00;292.05;;;22.80;99.90;;;;;;5031260;28;20049;-70
2023/09/28 11:59:20;;;;;;;327.27;310.10;;;22.80;99.90;;;;;;5029949;28;20030;-70
2023/09/28 12:01:47;;;;;;;337.67;319.83;;;22.90;99.90;;;;;;5028667;28;20411;-70
2023/09/28 12:04:13;;;;;;;307.45;291.10;;;23.00;99.90;;;;;;5031468;28;20048;-70
2023/09/28 12:06:39;;;;;;;269.08;254.65;;;22.80;99.90;;;;;;5030995;28;20026;-70
2023/09/28 12:09:06;;;;;;;260.05;246.23;;;22.80;99.90;;;;;;5033183;28;20059;-71
2023/09/28 12:11:33;;;;;;;269.95;255.70;;;22.80;99.90;;;;;;5034828;28;20037;-71
2023/09/28 12:13:59;;;;;;;276.23;261.77;;;22.90;99.90;;;;;;5034326;28;20484;-70
2023/09/28 12:16:26;;;;;;;280.67;266.10;;;23.10;99.90;;;;;;5034776;28;20404;-71
2023/09/28 12:18:52;;;;;;;295.08;279.48;;;23.20;99.90;;;;;;5035010;28;20499;-71
2023/09/28 12:21:18;;;;;;;299.45;283.98;;;23.30;99.90;;;;;;5034935;28;20044;-71
2023/09/28 12:23:44;;;;;;;308.85;292.63;;;23.40;99.90;;;;;;5035204;28;20025;-71
2023/09/28 12:26:11;;;;;;;334.52;317.02;;;23.40;99.90;;;;;;5034077;28;20041;-71